sensor_id;sensor_type;location;lat;lon;timestamp;P1;durP1;ratioP1;P2;durP2;ratioP2
71969;SDS011;59838;52.152;5.436;2022-09-13T00:01:20;8.80;;;5.03;;
71969;SDS011;59838;52.152;5.436;2022-09-13T00:03:47;5.53;;;4.33;;
71969;SDS011;59838;52.152;5.436;2022-09-13T00:06:14;5.90;;;5.10;;
71969;SDS011;59838;52.152;5.436;2022-09-13T00:08:42;4.45;;;4.05;;
71969;SDS011;59838;52.152;5.436;2022-09-13T00:13:52;6.88;;;5.13;;
71969;SDS011;59838;52.152;5.436;2022-09-13T00:16:19;7.37;;;4.77;;
71969;SDS011;59838;52.152;5.436;2022-09-13T00:18:47;13.18;;;5.97;;
71969;SDS011;59838;52.152;5.436;2022-09-13T00:21:16;6.13;;;5.30;;
71969;SDS011;59838;52.152;5.436;2022-09-13T00:23:45;5.45;;;4.93;;
71969;SDS011;59838;52.152;5.436;2022-09-13T00:26:14;6.55;;;5.50;;
71969;SDS011;59838;52.152;5.436;2022-09-13T00:28:42;7.20;;;4.67;;
71969;SDS011;59838;52.152;5.436;2022-09-13T00:31:10;6.60;;;5.90;;
71969;SDS011;59838;52.152;5.436;2022-09-13T00:33:37;7.55;;;5.20;;
71969;SDS011;59838;52.152;5.436;2022-09-13T00:36:08;7.03;;;5.90;;
71969;SDS011;59838;52.152;5.436;2022-09-13T00:38:36;6.95;;;5.72;;
71969;SDS011;59838;52.152;5.436;2022-09-13T00:41:04;4.67;;;4.17;;
71969;SDS011;59838;52.152;5.436;2022-09-13T00:46:32;6.35;;;5.30;;
71969;SDS011;59838;52.152;5.436;2022-09-13T00:49:29;6.35;;;5.22;;
71969;SDS011;59838;52.152;5.436;2022-09-13T00:52:03;7.30;;;4.68;;
71969;SDS011;59838;52.152;5.436;2022-09-13T00:54:35;5.00;;;4.50;;
71969;SDS011;59838;52.152;5.436;2022-09-13T00:57:05;5.95;;;4.85;;
71969;SDS011;59838;52.152;5.436;2022-09-13T00:59:40;7.25;;;5.45;;
71969;SDS011;59838;52.152;5.436;2022-09-13T01:02:10;7.15;;;5.30;;
71969;SDS011;59838;52.152;5.436;2022-09-13T01:04:37;7.45;;;5.25;;
71969;SDS011;59838;52.152;5.436;2022-09-13T01:07:05;6.20;;;5.60;;
71969;SDS011;59838;52.152;5.436;2022-09-13T01:09:35;9.57;;;4.65;;
71969;SDS011;59838;52.152;5.436;2022-09-13T01:12:06;7.47;;;4.93;;
71969;SDS011;59838;52.152;5.436;2022-09-13T01:14:40;8.15;;;6.20;;
71969;SDS011;59838;52.152;5.436;2022-09-13T01:17:07;8.32;;;5.85;;
71969;SDS011;59838;52.152;5.436;2022-09-13T01:19:34;9.03;;;5.40;;
71969;SDS011;59838;52.152;5.436;2022-09-13T01:31:11;10.82;;;6.25;;
71969;SDS011;59838;52.152;5.436;2022-09-13T01:39:05;7.78;;;5.70;;
71969;SDS011;59838;52.152;5.436;2022-09-13T01:41:43;7.40;;;5.60;;
71969;SDS011;59838;52.152;5.436;2022-09-13T01:47:42;7.17;;;5.27;;
71969;SDS011;59838;52.152;5.436;2022-09-13T01:53:16;5.72;;;5.07;;
71969;SDS011;59838;52.152;5.436;2022-09-13T01:55:51;6.28;;;5.07;;
71969;SDS011;59838;52.152;5.436;2022-09-13T01:58:28;7.68;;;4.82;;
71969;SDS011;59838;52.152;5.436;2022-09-13T02:01:14;8.43;;;5.53;;
71969;SDS011;59838;52.152;5.436;2022-09-13T02:04:01;6.53;;;5.93;;
71969;SDS011;59838;52.152;5.436;2022-09-13T02:06:43;6.97;;;6.13;;
71969;SDS011;59838;52.152;5.436;2022-09-13T02:09:19;9.02;;;6.07;;
71969;SDS011;59838;52.152;5.436;2022-09-13T02:12:04;8.18;;;6.28;;
71969;SDS011;59838;52.152;5.436;2022-09-13T02:14:38;6.40;;;5.27;;
71969;SDS011;59838;52.152;5.436;2022-09-13T02:17:12;7.07;;;6.07;;
71969;SDS011;59838;52.152;5.436;2022-09-13T02:19:56;8.02;;;5.50;;
71969;SDS011;59838;52.152;5.436;2022-09-13T02:22:38;7.85;;;5.47;;
71969;SDS011;59838;52.152;5.436;2022-09-13T02:25:12;9.10;;;5.45;;
71969;SDS011;59838;52.152;5.436;2022-09-13T02:27:43;7.67;;;4.90;;
71969;SDS011;59838;52.152;5.436;2022-09-13T02:30:12;6.53;;;5.35;;
71969;SDS011;59838;52.152;5.436;2022-09-13T02:35:35;6.38;;;5.40;;
71969;SDS011;59838;52.152;5.436;2022-09-13T02:38:09;8.18;;;5.35;;
71969;SDS011;59838;52.152;5.436;2022-09-13T02:40:56;6.13;;;4.97;;
71969;SDS011;59838;52.152;5.436;2022-09-13T02:43:30;5.03;;;4.50;;
71969;SDS011;59838;52.152;5.436;2022-09-13T02:48:43;9.20;;;5.93;;
71969;SDS011;59838;52.152;5.436;2022-09-13T02:54:13;5.83;;;5.23;;
71969;SDS011;59838;52.152;5.436;2022-09-13T02:59:52;7.75;;;5.45;;
71969;SDS011;59838;52.152;5.436;2022-09-13T03:02:19;6.80;;;5.40;;
71969;SDS011;59838;52.152;5.436;2022-09-13T03:04:50;9.98;;;4.93;;
71969;SDS011;59838;52.152;5.436;2022-09-13T03:07:16;6.80;;;4.57;;
71969;SDS011;59838;52.152;5.436;2022-09-13T03:09:50;8.70;;;5.60;;
71969;SDS011;59838;52.152;5.436;2022-09-13T03:23:44;8.20;;;6.50;;
71969;SDS011;59838;52.152;5.436;2022-09-13T03:31:33;10.50;;;6.30;;
71969;SDS011;59838;52.152;5.436;2022-09-13T03:34:09;8.27;;;6.77;;
71969;SDS011;59838;52.152;5.436;2022-09-13T03:36:46;9.15;;;7.35;;
71969;SDS011;59838;52.152;5.436;2022-09-13T03:42:04;11.73;;;7.18;;
71969;SDS011;59838;52.152;5.436;2022-09-13T03:44:37;9.52;;;7.40;;
71969;SDS011;59838;52.152;5.436;2022-09-13T03:47:06;9.83;;;7.80;;
71969;SDS011;59838;52.152;5.436;2022-09-13T03:49:33;10.77;;;7.40;;
71969;SDS011;59838;52.152;5.436;2022-09-13T03:52:04;12.43;;;7.90;;
71969;SDS011;59838;52.152;5.436;2022-09-13T03:54:32;9.45;;;7.28;;
71969;SDS011;59838;52.152;5.436;2022-09-13T03:59:37;10.20;;;7.47;;
71969;SDS011;59838;52.152;5.436;2022-09-13T04:02:06;9.80;;;6.85;;
71969;SDS011;59838;52.152;5.436;2022-09-13T04:04:37;8.75;;;6.53;;
71969;SDS011;59838;52.152;5.436;2022-09-13T04:07:05;10.80;;;7.00;;
71969;SDS011;59838;52.152;5.436;2022-09-13T04:09:31;8.75;;;6.65;;
71969;SDS011;59838;52.152;5.436;2022-09-13T04:11:58;9.50;;;6.50;;
71969;SDS011;59838;52.152;5.436;2022-09-13T04:14:24;9.07;;;6.45;;
71969;SDS011;59838;52.152;5.436;2022-09-13T04:16:54;8.57;;;6.55;;
71969;SDS011;59838;52.152;5.436;2022-09-13T04:19:23;7.82;;;5.57;;
71969;SDS011;59838;52.152;5.436;2022-09-13T04:21:51;8.80;;;6.60;;
71969;SDS011;59838;52.152;5.436;2022-09-13T04:24:18;10.77;;;6.27;;
71969;SDS011;59838;52.152;5.436;2022-09-13T04:26:49;9.60;;;6.28;;
71969;SDS011;59838;52.152;5.436;2022-09-13T04:29:19;9.48;;;6.90;;
71969;SDS011;59838;52.152;5.436;2022-09-13T04:31:48;7.80;;;6.50;;
71969;SDS011;59838;52.152;5.436;2022-09-13T04:34:15;7.35;;;6.53;;
71969;SDS011;59838;52.152;5.436;2022-09-13T04:36:46;6.20;;;5.53;;
71969;SDS011;59838;52.152;5.436;2022-09-13T04:39:12;7.72;;;6.80;;
71969;SDS011;59838;52.152;5.436;2022-09-13T04:41:42;6.97;;;5.60;;
71969;SDS011;59838;52.152;5.436;2022-09-13T04:44:12;9.25;;;6.30;;
71969;SDS011;59838;52.152;5.436;2022-09-13T04:46:40;8.25;;;6.70;;
71969;SDS011;59838;52.152;5.436;2022-09-13T04:49:08;6.83;;;5.60;;
71969;SDS011;59838;52.152;5.436;2022-09-13T04:51:34;8.98;;;6.82;;
71969;SDS011;59838;52.152;5.436;2022-09-13T04:54:01;8.32;;;6.55;;
71969;SDS011;59838;52.152;5.436;2022-09-13T04:56:27;12.30;;;6.47;;
71969;SDS011;59838;52.152;5.436;2022-09-13T04:58:54;9.85;;;6.47;;
71969;SDS011;59838;52.152;5.436;2022-09-13T05:01:21;10.80;;;7.17;;
71969;SDS011;59838;52.152;5.436;2022-09-13T05:03:53;9.75;;;6.32;;
71969;SDS011;59838;52.152;5.436;2022-09-13T05:06:20;9.60;;;6.40;;
71969;SDS011;59838;52.152;5.436;2022-09-13T05:08:51;10.05;;;6.18;;
71969;SDS011;59838;52.152;5.436;2022-09-13T05:11:20;8.00;;;5.82;;
71969;SDS011;59838;52.152;5.436;2022-09-13T05:13:51;7.27;;;5.87;;
71969;SDS011;59838;52.152;5.436;2022-09-13T05:16:21;9.70;;;6.40;;
71969;SDS011;59838;52.152;5.436;2022-09-13T05:18:49;7.47;;;6.20;;
71969;SDS011;59838;52.152;5.436;2022-09-13T05:21:17;9.30;;;6.10;;
71969;SDS011;59838;52.152;5.436;2022-09-13T05:23:44;8.45;;;6.45;;
71969;SDS011;59838;52.152;5.436;2022-09-13T05:26:13;8.23;;;6.50;;
71969;SDS011;59838;52.152;5.436;2022-09-13T05:28:40;10.05;;;6.38;;
71969;SDS011;59838;52.152;5.436;2022-09-13T05:31:08;8.70;;;6.00;;
71969;SDS011;59838;52.152;5.436;2022-09-13T05:33:38;12.50;;;6.93;;
71969;SDS011;59838;52.152;5.436;2022-09-13T05:36:05;9.52;;;7.47;;
71969;SDS011;59838;52.152;5.436;2022-09-13T05:38:32;9.90;;;7.33;;
71969;SDS011;59838;52.152;5.436;2022-09-13T05:41:00;10.82;;;6.95;;
71969;SDS011;59838;52.152;5.436;2022-09-13T05:43:28;9.13;;;7.00;;
71969;SDS011;59838;52.152;5.436;2022-09-13T05:46:15;8.40;;;6.82;;
71969;SDS011;59838;52.152;5.436;2022-09-13T05:48:43;12.52;;;7.43;;
71969;SDS011;59838;52.152;5.436;2022-09-13T05:53:42;13.55;;;7.38;;
71969;SDS011;59838;52.152;5.436;2022-09-13T05:56:11;11.15;;;7.22;;
71969;SDS011;59838;52.152;5.436;2022-09-13T05:58:42;12.57;;;8.13;;
71969;SDS011;59838;52.152;5.436;2022-09-13T06:01:11;11.88;;;8.35;;
71969;SDS011;59838;52.152;5.436;2022-09-13T06:03:38;12.00;;;7.97;;
71969;SDS011;59838;52.152;5.436;2022-09-13T06:06:05;13.68;;;8.85;;
71969;SDS011;59838;52.152;5.436;2022-09-13T06:08:33;15.30;;;9.75;;
71969;SDS011;59838;52.152;5.436;2022-09-13T06:11:01;14.40;;;9.07;;
71969;SDS011;59838;52.152;5.436;2022-09-13T06:13:35;15.13;;;10.55;;
71969;SDS011;59838;52.152;5.436;2022-09-13T06:16:02;17.30;;;11.30;;
71969;SDS011;59838;52.152;5.436;2022-09-13T06:18:31;18.33;;;10.02;;
71969;SDS011;59838;52.152;5.436;2022-09-13T06:20:58;15.13;;;10.43;;
71969;SDS011;59838;52.152;5.436;2022-09-13T06:23:27;19.08;;;10.27;;
71969;SDS011;59838;52.152;5.436;2022-09-13T06:26:04;16.77;;;11.10;;
71969;SDS011;59838;52.152;5.436;2022-09-13T06:28:35;22.13;;;12.07;;
71969;SDS011;59838;52.152;5.436;2022-09-13T06:31:03;21.90;;;12.55;;
71969;SDS011;59838;52.152;5.436;2022-09-13T06:33:32;22.85;;;13.07;;
71969;SDS011;59838;52.152;5.436;2022-09-13T06:36:00;25.08;;;13.18;;
71969;SDS011;59838;52.152;5.436;2022-09-13T06:38:29;23.55;;;13.57;;
71969;SDS011;59838;52.152;5.436;2022-09-13T06:41:02;31.03;;;14.50;;
71969;SDS011;59838;52.152;5.436;2022-09-13T06:43:31;24.08;;;12.65;;
71969;SDS011;59838;52.152;5.436;2022-09-13T06:45:59;23.15;;;12.85;;
71969;SDS011;59838;52.152;5.436;2022-09-13T06:48:29;24.55;;;12.25;;
71969;SDS011;59838;52.152;5.436;2022-09-13T06:51:00;29.92;;;13.93;;
71969;SDS011;59838;52.152;5.436;2022-09-13T06:53:27;26.17;;;13.23;;
71969;SDS011;59838;52.152;5.436;2022-09-13T06:56:07;24.98;;;12.57;;
71969;SDS011;59838;52.152;5.436;2022-09-13T06:58:36;24.15;;;13.23;;
71969;SDS011;59838;52.152;5.436;2022-09-13T07:01:14;27.10;;;13.70;;
71969;SDS011;59838;52.152;5.436;2022-09-13T07:03:45;23.98;;;13.27;;
71969;SDS011;59838;52.152;5.436;2022-09-13T07:06:32;25.00;;;12.80;;
71969;SDS011;59838;52.152;5.436;2022-09-13T07:09:01;24.42;;;13.43;;
71969;SDS011;59838;52.152;5.436;2022-09-13T07:11:31;23.83;;;13.30;;
71969;SDS011;59838;52.152;5.436;2022-09-13T07:13:59;23.30;;;13.48;;
71969;SDS011;59838;52.152;5.436;2022-09-13T07:16:30;24.55;;;14.60;;
71969;SDS011;59838;52.152;5.436;2022-09-13T07:18:59;25.10;;;15.13;;
71969;SDS011;59838;52.152;5.436;2022-09-13T07:21:27;25.38;;;14.43;;
71969;SDS011;59838;52.152;5.436;2022-09-13T07:23:54;27.58;;;15.45;;
71969;SDS011;59838;52.152;5.436;2022-09-13T07:26:22;24.70;;;14.63;;
71969;SDS011;59838;52.152;5.436;2022-09-13T07:28:51;25.70;;;14.15;;
71969;SDS011;59838;52.152;5.436;2022-09-13T07:31:22;20.70;;;12.67;;
71969;SDS011;59838;52.152;5.436;2022-09-13T07:33:55;23.60;;;13.10;;
71969;SDS011;59838;52.152;5.436;2022-09-13T07:36:22;22.15;;;12.75;;
71969;SDS011;59838;52.152;5.436;2022-09-13T07:38:49;19.88;;;12.65;;
71969;SDS011;59838;52.152;5.436;2022-09-13T07:41:17;23.30;;;11.98;;
71969;SDS011;59838;52.152;5.436;2022-09-13T07:43:45;23.17;;;12.60;;
71969;SDS011;59838;52.152;5.436;2022-09-13T07:46:13;18.25;;;11.60;;
71969;SDS011;59838;52.152;5.436;2022-09-13T07:48:42;20.15;;;11.45;;
71969;SDS011;59838;52.152;5.436;2022-09-13T07:51:13;16.05;;;10.68;;
71969;SDS011;59838;52.152;5.436;2022-09-13T07:53:41;21.02;;;11.32;;
71969;SDS011;59838;52.152;5.436;2022-09-13T07:56:13;16.47;;;10.23;;
71969;SDS011;59838;52.152;5.436;2022-09-13T07:58:47;18.08;;;10.80;;
71969;SDS011;59838;52.152;5.436;2022-09-13T08:01:19;16.98;;;9.15;;
71969;SDS011;59838;52.152;5.436;2022-09-13T08:03:54;13.57;;;8.57;;
71969;SDS011;59838;52.152;5.436;2022-09-13T08:06:22;10.73;;;6.70;;
71969;SDS011;59838;52.152;5.436;2022-09-13T08:08:51;10.70;;;6.47;;
71969;SDS011;59838;52.152;5.436;2022-09-13T08:11:20;10.38;;;6.28;;
71969;SDS011;59838;52.152;5.436;2022-09-13T08:13:48;9.35;;;6.43;;
71969;SDS011;59838;52.152;5.436;2022-09-13T08:16:17;10.80;;;6.43;;
71969;SDS011;59838;52.152;5.436;2022-09-13T08:18:49;9.77;;;5.85;;
71969;SDS011;59838;52.152;5.436;2022-09-13T08:21:16;7.33;;;5.47;;
71969;SDS011;59838;52.152;5.436;2022-09-13T08:23:43;6.20;;;4.65;;
71969;SDS011;59838;52.152;5.436;2022-09-13T08:26:10;5.90;;;4.85;;
71969;SDS011;59838;52.152;5.436;2022-09-13T08:28:37;5.85;;;3.53;;
71969;SDS011;59838;52.152;5.436;2022-09-13T08:31:12;5.97;;;3.42;;
71969;SDS011;59838;52.152;5.436;2022-09-13T08:33:43;4.23;;;3.10;;
71969;SDS011;59838;52.152;5.436;2022-09-13T08:36:12;5.90;;;2.90;;
71969;SDS011;59838;52.152;5.436;2022-09-13T08:38:39;5.25;;;3.00;;
71969;SDS011;59838;52.152;5.436;2022-09-13T08:46:32;2.07;;;1.60;;
71969;SDS011;59838;52.152;5.436;2022-09-13T08:49:14;2.63;;;1.50;;
71969;SDS011;59838;52.152;5.436;2022-09-13T08:51:50;2.63;;;1.10;;
71969;SDS011;59838;52.152;5.436;2022-09-13T08:54:19;2.92;;;1.23;;
71969;SDS011;59838;52.152;5.436;2022-09-13T08:56:51;4.88;;;1.48;;
71969;SDS011;59838;52.152;5.436;2022-09-13T09:10:49;0.93;;;0.50;;
71969;SDS011;59838;52.152;5.436;2022-09-13T09:15:52;1.75;;;0.77;;
71969;SDS011;59838;52.152;5.436;2022-09-13T09:20:56;2.63;;;0.70;;
71969;SDS011;59838;52.152;5.436;2022-09-13T09:24:08;2.88;;;0.88;;
71969;SDS011;59838;52.152;5.436;2022-09-13T09:26:23;1.73;;;0.40;;
71969;SDS011;59838;52.152;5.436;2022-09-13T09:28:58;3.88;;;0.75;;
71969;SDS011;59838;52.152;5.436;2022-09-13T09:37:35;2.30;;;0.70;;
71969;SDS011;59838;52.152;5.436;2022-09-13T09:40:03;1.60;;;0.60;;
71969;SDS011;59838;52.152;5.436;2022-09-13T09:42:40;3.33;;;0.70;;
71969;SDS011;59838;52.152;5.436;2022-09-13T09:47:53;5.95;;;1.35;;
71969;SDS011;59838;52.152;5.436;2022-09-13T09:50:23;1.70;;;1.20;;
71969;SDS011;59838;52.152;5.436;2022-09-13T09:58:38;2.22;;;0.50;;
71969;SDS011;59838;52.152;5.436;2022-09-13T10:01:23;2.70;;;0.90;;
71969;SDS011;59838;52.152;5.436;2022-09-13T10:06:23;6.10;;;0.50;;
71969;SDS011;59838;52.152;5.436;2022-09-13T10:11:38;5.03;;;0.63;;
71969;SDS011;59838;52.152;5.436;2022-09-13T10:14:25;1.95;;;0.50;;
71969;SDS011;59838;52.152;5.436;2022-09-13T10:19:41;2.30;;;0.70;;
71969;SDS011;59838;52.152;5.436;2022-09-13T10:22:17;3.67;;;0.65;;
71969;SDS011;59838;52.152;5.436;2022-09-13T10:24:44;3.53;;;0.68;;
71969;SDS011;59838;52.152;5.436;2022-09-13T10:27:28;1.60;;;0.98;;
71969;SDS011;59838;52.152;5.436;2022-09-13T10:29:59;3.10;;;0.65;;
71969;SDS011;59838;52.152;5.436;2022-09-13T10:32:30;6.00;;;0.60;;
71969;SDS011;59838;52.152;5.436;2022-09-13T10:35:00;1.05;;;0.50;;
71969;SDS011;59838;52.152;5.436;2022-09-13T10:37:33;1.25;;;0.60;;
71969;SDS011;59838;52.152;5.436;2022-09-13T10:40:11;2.60;;;0.50;;
71969;SDS011;59838;52.152;5.436;2022-09-13T10:42:55;2.85;;;0.60;;
71969;SDS011;59838;52.152;5.436;2022-09-13T10:45:24;2.13;;;0.50;;
71969;SDS011;59838;52.152;5.436;2022-09-13T10:47:53;1.67;;;0.80;;
71969;SDS011;59838;52.152;5.436;2022-09-13T10:50:27;2.45;;;0.50;;
71969;SDS011;59838;52.152;5.436;2022-09-13T10:53:01;1.52;;;0.70;;
71969;SDS011;59838;52.152;5.436;2022-09-13T10:55:34;2.60;;;0.68;;
71969;SDS011;59838;52.152;5.436;2022-09-13T11:00:38;1.77;;;0.60;;
71969;SDS011;59838;52.152;5.436;2022-09-13T11:05:46;1.20;;;0.68;;
71969;SDS011;59838;52.152;5.436;2022-09-13T11:08:45;3.55;;;0.73;;
71969;SDS011;59838;52.152;5.436;2022-09-13T11:17:13;3.28;;;1.00;;
71969;SDS011;59838;52.152;5.436;2022-09-13T11:37:18;2.40;;;0.70;;
71969;SDS011;59838;52.152;5.436;2022-09-13T11:54:21;4.00;;;0.70;;
71969;SDS011;59838;52.152;5.436;2022-09-13T11:56:54;2.90;;;1.00;;
71969;SDS011;59838;52.152;5.436;2022-09-13T11:59:31;3.35;;;0.68;;
71969;SDS011;59838;52.152;5.436;2022-09-13T12:02:16;2.15;;;0.73;;
71969;SDS011;59838;52.152;5.436;2022-09-13T12:04:51;5.30;;;0.90;;
71969;SDS011;59838;52.152;5.436;2022-09-13T12:10:16;2.10;;;0.60;;
71969;SDS011;59838;52.152;5.436;2022-09-13T12:12:48;2.22;;;0.90;;
71969;SDS011;59838;52.152;5.436;2022-09-13T12:17:52;2.47;;;0.60;;
71969;SDS011;59838;52.152;5.436;2022-09-13T12:23:26;1.63;;;0.57;;
71969;SDS011;59838;52.152;5.436;2022-09-13T12:25:58;1.73;;;0.70;;
71969;SDS011;59838;52.152;5.436;2022-09-13T12:28:47;2.15;;;0.82;;
71969;SDS011;59838;52.152;5.436;2022-09-13T12:31:26;3.17;;;0.77;;
71969;SDS011;59838;52.152;5.436;2022-09-13T12:33:57;1.13;;;0.70;;
71969;SDS011;59838;52.152;5.436;2022-09-13T12:42:21;1.75;;;0.77;;
71969;SDS011;59838;52.152;5.436;2022-09-13T12:54:00;1.35;;;0.70;;
71969;SDS011;59838;52.152;5.436;2022-09-13T12:59:18;2.28;;;0.57;;
71969;SDS011;59838;52.152;5.436;2022-09-13T13:02:02;2.70;;;0.67;;
71969;SDS011;59838;52.152;5.436;2022-09-13T13:04:48;3.33;;;0.70;;
71969;SDS011;59838;52.152;5.436;2022-09-13T13:07:20;2.22;;;0.85;;
71969;SDS011;59838;52.152;5.436;2022-09-13T13:09:49;5.25;;;1.35;;
71969;SDS011;59838;52.152;5.436;2022-09-13T13:12:29;1.98;;;0.88;;
71969;SDS011;59838;52.152;5.436;2022-09-13T13:15:04;2.10;;;0.87;;
71969;SDS011;59838;52.152;5.436;2022-09-13T13:23:15;3.95;;;0.60;;
71969;SDS011;59838;52.152;5.436;2022-09-13T13:34:00;1.50;;;0.50;;
71969;SDS011;59838;52.152;5.436;2022-09-13T13:46:46;1.55;;;0.60;;
71969;SDS011;59838;52.152;5.436;2022-09-13T14:00:20;0.85;;;0.43;;
71969;SDS011;59838;52.152;5.436;2022-09-13T14:02:55;2.50;;;0.40;;
71969;SDS011;59838;52.152;5.436;2022-09-13T14:24:46;2.25;;;0.52;;
71969;SDS011;59838;52.152;5.436;2022-09-13T14:27:22;1.67;;;0.50;;
71969;SDS011;59838;52.152;5.436;2022-09-13T14:29:52;3.65;;;0.52;;
71969;SDS011;59838;52.152;5.436;2022-09-13T14:32:27;1.02;;;0.50;;
71969;SDS011;59838;52.152;5.436;2022-09-13T14:35:05;3.00;;;0.93;;
71969;SDS011;59838;52.152;5.436;2022-09-13T14:37:46;1.35;;;0.30;;
71969;SDS011;59838;52.152;5.436;2022-09-13T14:40:20;1.88;;;0.52;;
71969;SDS011;59838;52.152;5.436;2022-09-13T14:42:49;5.90;;;0.40;;
71969;SDS011;59838;52.152;5.436;2022-09-13T14:45:26;0.70;;;0.40;;
71969;SDS011;59838;52.152;5.436;2022-09-13T14:47:58;1.93;;;0.37;;
71969;SDS011;59838;52.152;5.436;2022-09-13T14:50:31;2.83;;;0.45;;
71969;SDS011;59838;52.152;5.436;2022-09-13T14:53:06;1.98;;;0.40;;
71969;SDS011;59838;52.152;5.436;2022-09-13T14:55:59;1.27;;;0.45;;
71969;SDS011;59838;52.152;5.436;2022-09-13T14:58:28;1.50;;;0.32;;
71969;SDS011;59838;52.152;5.436;2022-09-13T15:01:04;2.17;;;0.30;;
71969;SDS011;59838;52.152;5.436;2022-09-13T15:03:34;3.53;;;0.32;;
71969;SDS011;59838;52.152;5.436;2022-09-13T15:06:02;2.45;;;0.70;;
71969;SDS011;59838;52.152;5.436;2022-09-13T15:11:01;0.75;;;0.40;;
71969;SDS011;59838;52.152;5.436;2022-09-13T15:13:29;4.63;;;0.50;;
71969;SDS011;59838;52.152;5.436;2022-09-13T15:15:57;1.92;;;0.30;;
71969;SDS011;59838;52.152;5.436;2022-09-13T15:18:25;7.20;;;0.95;;
71969;SDS011;59838;52.152;5.436;2022-09-13T15:21:05;1.92;;;0.20;;
71969;SDS011;59838;52.152;5.436;2022-09-13T15:23:40;0.90;;;0.50;;
71969;SDS011;59838;52.152;5.436;2022-09-13T15:26:21;4.73;;;0.40;;
71969;SDS011;59838;52.152;5.436;2022-09-13T15:28:51;4.30;;;0.38;;
71969;SDS011;59838;52.152;5.436;2022-09-13T15:31:25;1.70;;;0.55;;
71969;SDS011;59838;52.152;5.436;2022-09-13T15:36:42;1.77;;;0.55;;
71969;SDS011;59838;52.152;5.436;2022-09-13T15:39:13;4.53;;;0.50;;
71969;SDS011;59838;52.152;5.436;2022-09-13T15:41:52;4.88;;;0.68;;
71969;SDS011;59838;52.152;5.436;2022-09-13T15:44:20;4.93;;;0.52;;
71969;SDS011;59838;52.152;5.436;2022-09-13T15:46:49;7.28;;;0.93;;
71969;SDS011;59838;52.152;5.436;2022-09-13T15:49:21;2.38;;;0.20;;
71969;SDS011;59838;52.152;5.436;2022-09-13T15:51:55;2.40;;;0.30;;
71969;SDS011;59838;52.152;5.436;2022-09-13T15:54:25;2.25;;;0.38;;
71969;SDS011;59838;52.152;5.436;2022-09-13T15:56:58;1.25;;;0.45;;
71969;SDS011;59838;52.152;5.436;2022-09-13T15:59:24;1.75;;;0.30;;
71969;SDS011;59838;52.152;5.436;2022-09-13T16:01:51;2.20;;;0.35;;
71969;SDS011;59838;52.152;5.436;2022-09-13T16:04:18;5.17;;;0.30;;
71969;SDS011;59838;52.152;5.436;2022-09-13T16:06:44;3.00;;;0.45;;
71969;SDS011;59838;52.152;5.436;2022-09-13T16:09:15;2.53;;;0.45;;
71969;SDS011;59838;52.152;5.436;2022-09-13T16:11:44;4.57;;;0.40;;
71969;SDS011;59838;52.152;5.436;2022-09-13T16:14:12;2.08;;;0.50;;
71969;SDS011;59838;52.152;5.436;2022-09-13T16:16:39;3.33;;;0.30;;
71969;SDS011;59838;52.152;5.436;2022-09-13T16:19:09;4.47;;;0.45;;
71969;SDS011;59838;52.152;5.436;2022-09-13T16:21:40;2.70;;;0.30;;
71969;SDS011;59838;52.152;5.436;2022-09-13T16:24:06;2.90;;;0.30;;
71969;SDS011;59838;52.152;5.436;2022-09-13T16:26:33;2.08;;;0.60;;
71969;SDS011;59838;52.152;5.436;2022-09-13T16:29:00;4.67;;;0.20;;
71969;SDS011;59838;52.152;5.436;2022-09-13T16:31:26;2.05;;;0.32;;
71969;SDS011;59838;52.152;5.436;2022-09-13T16:33:53;3.47;;;0.70;;
71969;SDS011;59838;52.152;5.436;2022-09-13T16:36:19;1.45;;;0.50;;
71969;SDS011;59838;52.152;5.436;2022-09-13T16:38:46;1.25;;;0.68;;
71969;SDS011;59838;52.152;5.436;2022-09-13T16:41:13;1.40;;;0.30;;
71969;SDS011;59838;52.152;5.436;2022-09-13T16:43:40;4.22;;;0.40;;
71969;SDS011;59838;52.152;5.436;2022-09-13T16:46:07;2.55;;;0.32;;
71969;SDS011;59838;52.152;5.436;2022-09-13T16:48:34;2.58;;;0.32;;
71969;SDS011;59838;52.152;5.436;2022-09-13T16:51:02;3.58;;;0.63;;
71969;SDS011;59838;52.152;5.436;2022-09-13T16:53:33;5.13;;;0.30;;
71969;SDS011;59838;52.152;5.436;2022-09-13T16:56:20;4.45;;;0.38;;
71969;SDS011;59838;52.152;5.436;2022-09-13T16:58:49;1.60;;;0.30;;
71969;SDS011;59838;52.152;5.436;2022-09-13T17:01:17;2.42;;;1.10;;
71969;SDS011;59838;52.152;5.436;2022-09-13T17:03:45;5.30;;;0.30;;
71969;SDS011;59838;52.152;5.436;2022-09-13T17:06:16;1.90;;;0.20;;
71969;SDS011;59838;52.152;5.436;2022-09-13T17:08:45;2.40;;;0.40;;
71969;SDS011;59838;52.152;5.436;2022-09-13T17:11:17;2.55;;;0.25;;
71969;SDS011;59838;52.152;5.436;2022-09-13T17:13:49;2.40;;;0.30;;
71969;SDS011;59838;52.152;5.436;2022-09-13T17:18:53;9.07;;;1.53;;
71969;SDS011;59838;52.152;5.436;2022-09-13T17:21:19;0.65;;;0.20;;
71969;SDS011;59838;52.152;5.436;2022-09-13T17:23:47;2.55;;;0.68;;
71969;SDS011;59838;52.152;5.436;2022-09-13T17:26:17;3.15;;;0.40;;
71969;SDS011;59838;52.152;5.436;2022-09-13T17:28:43;3.97;;;0.22;;
71969;SDS011;59838;52.152;5.436;2022-09-13T17:31:10;2.87;;;0.40;;
71969;SDS011;59838;52.152;5.436;2022-09-13T17:33:36;4.72;;;0.55;;
71969;SDS011;59838;52.152;5.436;2022-09-13T17:36:04;2.92;;;0.30;;
71969;SDS011;59838;52.152;5.436;2022-09-13T17:38:34;1.80;;;0.30;;
71969;SDS011;59838;52.152;5.436;2022-09-13T17:41:05;3.65;;;0.30;;
71969;SDS011;59838;52.152;5.436;2022-09-13T17:43:35;2.40;;;0.30;;
71969;SDS011;59838;52.152;5.436;2022-09-13T17:46:06;3.75;;;1.15;;
71969;SDS011;59838;52.152;5.436;2022-09-13T17:48:37;3.05;;;0.60;;
71969;SDS011;59838;52.152;5.436;2022-09-13T17:51:14;6.95;;;0.70;;
71969;SDS011;59838;52.152;5.436;2022-09-13T17:53:50;3.25;;;0.35;;
71969;SDS011;59838;52.152;5.436;2022-09-13T17:56:21;2.87;;;0.43;;
71969;SDS011;59838;52.152;5.436;2022-09-13T17:58:50;1.23;;;0.30;;
71969;SDS011;59838;52.152;5.436;2022-09-13T18:01:17;6.13;;;0.60;;
71969;SDS011;59838;52.152;5.436;2022-09-13T18:03:43;3.83;;;0.30;;
71969;SDS011;59838;52.152;5.436;2022-09-13T18:06:10;2.33;;;0.40;;
71969;SDS011;59838;52.152;5.436;2022-09-13T18:08:37;4.00;;;0.73;;
71969;SDS011;59838;52.152;5.436;2022-09-13T18:11:05;10.90;;;1.15;;
71969;SDS011;59838;52.152;5.436;2022-09-13T18:13:42;4.35;;;0.52;;
71969;SDS011;59838;52.152;5.436;2022-09-13T18:16:21;8.80;;;0.60;;
71969;SDS011;59838;52.152;5.436;2022-09-13T18:18:50;4.72;;;0.50;;
71969;SDS011;59838;52.152;5.436;2022-09-13T18:21:18;4.40;;;0.30;;
71969;SDS011;59838;52.152;5.436;2022-09-13T18:23:46;5.20;;;0.60;;
71969;SDS011;59838;52.152;5.436;2022-09-13T18:26:15;3.65;;;0.43;;
71969;SDS011;59838;52.152;5.436;2022-09-13T18:28:43;2.92;;;0.40;;
71969;SDS011;59838;52.152;5.436;2022-09-13T18:31:15;5.35;;;0.50;;
71969;SDS011;59838;52.152;5.436;2022-09-13T18:33:43;5.33;;;1.03;;
71969;SDS011;59838;52.152;5.436;2022-09-13T18:36:11;2.72;;;0.40;;
71969;SDS011;59838;52.152;5.436;2022-09-13T18:38:44;4.68;;;0.30;;
71969;SDS011;59838;52.152;5.436;2022-09-13T18:41:17;1.98;;;0.52;;
71969;SDS011;59838;52.152;5.436;2022-09-13T18:43:46;3.40;;;0.20;;
71969;SDS011;59838;52.152;5.436;2022-09-13T18:46:22;4.20;;;0.30;;
71969;SDS011;59838;52.152;5.436;2022-09-13T18:48:50;3.20;;;0.30;;
71969;SDS011;59838;52.152;5.436;2022-09-13T18:51:20;3.20;;;0.40;;
71969;SDS011;59838;52.152;5.436;2022-09-13T18:53:48;4.82;;;0.70;;
71969;SDS011;59838;52.152;5.436;2022-09-13T18:56:16;3.25;;;0.82;;
71969;SDS011;59838;52.152;5.436;2022-09-13T18:58:45;6.57;;;0.30;;
71969;SDS011;59838;52.152;5.436;2022-09-13T19:01:16;2.25;;;0.35;;
71969;SDS011;59838;52.152;5.436;2022-09-13T19:06:20;6.53;;;0.60;;
71969;SDS011;59838;52.152;5.436;2022-09-13T19:08:47;4.93;;;0.60;;